Time;durP1;ratioP1;P1;durP2;ratioP2;P2;SDS_P1;SDS_P2;PMS_P1;PMS_P2;Temp;Humidity;BMP_temperature;BMP_pressure;BME280_temperature;BME280_humidity;BME280_pressure;Samples;Min_cycle;Max_cycle;Signal;HPM_P1;HPM_P2
2022/12/02 00:01:17;;;;;;;48.88;27.15;;;;;;;4.67;72.37;101250.88;4188286;28;20059;-69
2022/12/02 00:03:24;;;;;;;48.97;28.02;;;;;;;4.67;72.42;101243.16;4192941;28;20544;-70
2022/12/02 00:05:31;;;;;;;51.22;28.58;;;;;;;4.74;72.01;101236.59;4181417;28;20056;-71
2022/12/02 00:07:33;;;;;;;50.83;28.10;;;;;;;4.70;72.33;101232.09;4185131;28;20037;-70
2022/12/02 00:09:36;;;;;;;46.33;25.63;;;;;;;4.77;72.12;101230.72;4192424;28;20041;-70
2022/12/02 00:11:41;;;;;;;54.23;26.27;;;;;;;4.66;72.36;101233.66;4188599;28;20494;-69
2022/12/02 00:13:44;;;;;;;52.92;27.40;;;;;;;4.67;72.58;101234.53;4192966;28;20717;-71
2022/12/02 00:15:51;;;;;;;48.05;26.40;;;;;;;4.83;72.17;101231.94;4184027;28;20033;-69
2022/12/02 00:17:54;;;;;;;53.03;28.30;;;;;;;4.74;72.21;101233.16;4189321;28;20039;-69
2022/12/02 00:19:57;;;;;;;54.88;28.38;;;;;;;4.72;72.20;101223.66;4191662;28;20041;-70
2022/12/02 00:22:00;;;;;;;55.05;26.95;;;;;;;4.78;72.27;101232.50;4182078;28;20045;-69
2022/12/02 00:24:03;;;;;;;53.20;28.48;;;;;;;4.67;72.42;101227.69;4181343;28;20048;-69
2022/12/02 00:26:06;;;;;;;55.95;27.92;;;;;;;4.68;72.48;101226.88;4167919;28;20133;-70
2022/12/02 00:28:09;;;;;;;53.60;29.00;;;;;;;4.67;72.48;101222.56;4190844;28;20064;-70
2022/12/02 00:30:13;;;;;;;51.08;28.27;;;;;;;4.69;72.42;101220.03;4194784;28;20044;-70
2022/12/02 00:32:17;;;;;;;55.45;27.90;;;;;;;4.76;72.29;101218.66;4178553;28;20405;-70
2022/12/02 00:34:20;;;;;;;53.10;27.27;;;;;;;4.74;72.34;101218.56;4170088;28;20045;-70
2022/12/02 00:36:23;;;;;;;47.20;26.48;;;;;;;4.75;72.15;101217.78;4190125;28;20049;-70
2022/12/02 00:38:26;;;;;;;51.08;28.13;;;;;;;4.75;72.33;101214.31;4196632;28;20040;-70
2022/12/02 00:40:29;;;;;;;49.65;27.30;;;;;;;4.79;72.22;101214.53;4187039;28;20054;-70
2022/12/02 00:42:31;;;;;;;53.22;28.83;;;;;;;4.86;71.48;101216.63;4191896;28;20547;-70
2022/12/02 00:46:59;;;;;;;53.13;27.92;;;;;;;4.70;72.44;101216.66;4129741;28;20133;-70
2022/12/02 00:49:06;;;;;;;48.95;28.35;;;;;;;4.80;72.15;101208.56;4174703;28;20102;-70
2022/12/02 00:51:09;;;;;;;53.42;27.98;;;;;;;4.75;72.26;101212.63;4185766;28;20086;-70
2022/12/02 00:53:12;;;;;;;60.22;29.10;;;;;;;4.81;72.24;101218.06;4192584;28;20106;-70
2022/12/02 00:55:17;;;;;;;52.30;28.88;;;;;;;4.94;71.63;101214.41;4192671;28;20043;-70
2022/12/02 00:57:20;;;;;;;52.63;26.92;;;;;;;4.89;71.67;101208.13;4191755;28;20068;-70
2022/12/02 00:59:23;;;;;;;54.60;28.55;;;;;;;4.89;71.71;101206.47;4195864;28;20464;-70
2022/12/02 01:01:27;;;;;;;53.33;27.85;;;;;;;4.87;71.56;101208.06;4179231;28;20037;-70
2022/12/02 01:03:32;;;;;;;48.97;29.38;;;;;;;4.83;71.88;101206.16;4180670;28;20041;-69
2022/12/02 01:05:36;;;;;;;51.08;27.77;;;;;;;4.74;72.25;101204.81;4179256;28;20457;-70
2022/12/02 01:07:38;;;;;;;47.08;27.30;;;;;;;4.78;72.38;101205.03;4195217;28;20086;-70
2022/12/02 01:09:42;;;;;;;54.22;27.65;;;;;;;4.86;71.79;101202.84;4188859;28;20370;-70
2022/12/02 01:11:44;;;;;;;52.13;26.83;;;;;;;4.86;71.98;101200.25;4172721;28;20510;-70
2022/12/02 01:13:47;;;;;;;50.60;27.40;;;;;;;4.80;72.03;101195.69;4195228;28;20097;-70
2022/12/02 01:15:50;;;;;;;51.33;27.02;;;;;;;4.80;72.12;101195.69;4196462;28;20041;-70
2022/12/02 01:17:53;;;;;;;51.38;26.52;;;;;;;4.89;71.77;101193.59;4187913;28;20040;-70
2022/12/02 01:19:56;;;;;;;56.00;28.48;;;;;;;4.87;71.79;101190.03;4180528;28;20549;-70
2022/12/02 01:22:00;;;;;;;52.08;28.35;;;;;;;4.89;71.81;101185.84;4189513;28;20041;-70
2022/12/02 01:24:03;;;;;;;50.67;28.27;;;;;;;4.89;71.68;101185.84;4193828;28;20405;-70
2022/12/02 01:26:06;;;;;;;52.17;27.55;;;;;;;4.87;71.67;101184.88;4189714;28;20064;-70
2022/12/02 01:28:09;;;;;;;53.40;28.83;;;;;;;4.79;72.19;101187.88;4178885;28;20041;-70
2022/12/02 01:30:13;;;;;;;57.30;27.92;;;;;;;4.84;72.03;101183.84;4195295;28;20445;-70
2022/12/02 01:32:18;;;;;;;56.35;27.75;;;;;;;4.83;72.29;101182.06;4193541;28;20533;-70
2022/12/02 01:34:20;;;;;;;49.17;27.40;;;;;;;4.84;72.23;101187.31;4177302;28;20392;-70
2022/12/02 01:36:23;;;;;;;49.15;25.02;;;;;;;4.87;72.22;101179.72;4183648;28;20036;-70
2022/12/02 01:38:29;;;;;;;57.60;27.00;;;;;;;4.92;71.85;101179.06;4194690;28;20057;-70
2022/12/02 01:40:32;;;;;;;50.22;26.92;;;;;;;4.86;72.26;101185.72;4198804;28;20059;-70
2022/12/02 01:42:35;;;;;;;55.92;29.17;;;;;;;4.89;72.21;101185.84;4192074;28;20519;-70
2022/12/02 01:44:38;;;;;;;51.75;26.13;;;;;;;4.94;72.17;101183.50;4197704;28;20055;-70
2022/12/02 01:46:41;;;;;;;47.80;25.98;;;;;;;4.92;72.10;101179.06;4185748;28;20041;-70
2022/12/02 01:48:44;;;;;;;50.78;26.58;;;;;;;4.94;71.94;101185.19;4174238;28;20041;-70
2022/12/02 01:50:48;;;;;;;58.35;29.85;;;;;;;4.91;72.00;101185.94;4190957;28;20040;-70
2022/12/02 01:52:51;;;;;;;56.97;30.10;;;;;;;4.90;72.04;101179.88;4190404;28;20036;-70
2022/12/02 01:55:01;;;;;;;52.80;27.05;;;;;;;4.89;72.23;101183.28;4195314;28;20036;-70
2022/12/02 01:57:10;;;;;;;57.67;28.73;;;;;;;4.86;72.42;101180.56;4182475;28;20049;-70
2022/12/02 01:59:15;;;;;;;47.80;26.63;;;;;;;4.87;72.56;101181.44;4196284;28;20098;-70
2022/12/02 02:01:25;;;;;;;46.15;26.20;;;;;;;4.90;72.39;101182.44;4185331;28;20094;-70
2022/12/02 02:03:29;;;;;;;53.78;26.65;;;;;;;4.93;72.10;101186.00;4194796;28;20040;-69
2022/12/02 02:05:34;;;;;;;51.95;26.95;;;;;;;4.90;72.53;101187.59;4197086;28;20131;-71
2022/12/02 02:07:39;;;;;;;48.28;26.48;;;;;;;5.00;71.87;101188.94;4199490;28;20114;-70
2022/12/02 02:09:42;;;;;;;47.90;27.58;;;;;;;4.92;72.04;101181.66;4194383;28;20477;-70
2022/12/02 02:11:47;;;;;;;49.33;26.83;;;;;;;4.99;72.05;101181.13;4167123;28;20053;-70
2022/12/02 02:13:50;;;;;;;48.47;27.50;;;;;;;5.09;71.32;101178.19;4185634;28;20100;-70
2022/12/02 02:15:53;;;;;;;52.25;26.65;;;;;;;4.89;72.05;101169.50;4197395;28;20074;-70
2022/12/02 02:17:57;;;;;;;57.78;27.48;;;;;;;4.99;71.97;101184.59;4181500;28;20061;-70
2022/12/02 02:20:11;;;;;;;54.35;26.10;;;;;;;4.92;72.06;101179.06;4180857;28;20045;-70
2022/12/02 02:22:17;;;;;;;51.90;26.48;;;;;;;4.83;72.62;101170.09;4194455;28;20094;-70
2022/12/02 02:24:23;;;;;;;55.22;28.13;;;;;;;4.90;72.43;101172.13;4180788;28;20553;-70
2022/12/02 02:26:26;;;;;;;51.95;26.02;;;;;;;4.88;73.06;101173.78;4181739;28;20043;-70
2022/12/02 02:28:29;;;;;;;48.33;24.95;;;;;;;4.90;72.47;101168.69;4165702;28;20038;-71
2022/12/02 02:30:34;;;;;;;51.05;28.15;;;;;;;5.05;71.65;101173.69;4172857;28;20115;-70
2022/12/02 02:32:38;;;;;;;51.72;27.02;;;;;;;5.02;71.83;101166.72;4196472;28;20044;-70
2022/12/02 02:34:41;;;;;;;48.88;26.02;;;;;;;4.99;71.76;101165.69;4190441;28;20036;-70
2022/12/02 02:36:44;;;;;;;45.15;22.88;;;;;;;4.86;71.72;101159.94;4185088;28;20047;-70
2022/12/02 02:38:48;;;;;;;47.10;25.50;;;;;;;4.94;72.29;101165.47;4197390;28;20037;-70
2022/12/02 02:40:53;;;;;;;48.65;26.55;;;;;;;5.04;71.68;101159.06;4181190;28;20036;-70
2022/12/02 02:43:00;;;;;;;48.78;26.95;;;;;;;5.02;71.38;101155.50;4191090;28;20036;-70
2022/12/02 02:45:04;;;;;;;56.05;27.33;;;;;;;4.98;71.56;101161.31;4193009;28;20044;-70
2022/12/02 02:47:07;;;;;;;47.83;26.20;;;;;;;5.09;70.92;101155.00;4181138;28;20040;-70
2022/12/02 02:49:10;;;;;;;49.33;25.50;;;;;;;4.97;71.10;101151.84;4187406;28;20132;-70
2022/12/02 02:51:14;;;;;;;44.33;24.70;;;;;;;4.85;71.48;101153.00;4186212;28;20029;-70
2022/12/02 02:53:22;;;;;;;49.30;25.38;;;;;;;4.85;71.68;101147.00;4188070;28;20058;-70
2022/12/02 02:55:28;;;;;;;52.83;27.35;;;;;;;4.81;71.93;101148.53;4198710;28;20048;-70
2022/12/02 02:57:36;;;;;;;49.38;25.40;;;;;;;4.89;71.74;101151.44;4179760;28;20049;-70
2022/12/02 02:59:41;;;;;;;48.65;25.92;;;;;;;4.94;71.51;101156.84;4195674;28;20029;-70
2022/12/02 03:01:47;;;;;;;44.65;24.88;;;;;;;5.02;70.85;101145.22;4195980;28;20079;-69
2022/12/02 03:03:55;;;;;;;49.95;25.27;;;;;;;4.94;71.06;101151.69;4194960;28;20542;-70
2022/12/02 03:06:00;;;;;;;45.15;24.35;;;;;;;4.92;71.33;101150.72;4198715;28;20162;-70
2022/12/02 03:08:04;;;;;;;50.75;25.33;;;;;;;4.87;71.23;101151.38;4187619;28;20044;-70
2022/12/02 03:10:10;;;;;;;50.42;25.60;;;;;;;4.94;71.04;101146.56;4180793;28;20140;-70
2022/12/02 03:12:13;;;;;;;44.60;23.35;;;;;;;4.80;71.53;101149.31;4191631;28;20078;-70
2022/12/02 03:14:18;;;;;;;45.17;23.88;;;;;;;4.97;70.96;101141.53;4195227;28;20044;-70
2022/12/02 03:16:23;;;;;;;47.53;24.17;;;;;;;4.81;71.56;101140.78;4197249;28;20135;-70
2022/12/02 03:18:26;;;;;;;45.83;23.10;;;;;;;4.85;71.50;101141.84;4189577;28;20036;-70
2022/12/02 03:20:29;;;;;;;44.63;23.85;;;;;;;4.71;71.92;101141.16;4181803;28;20037;-70
2022/12/02 03:22:32;;;;;;;42.97;23.58;;;;;;;4.69;72.41;101135.94;4185261;28;20047;-70
2022/12/02 03:24:36;;;;;;;49.15;25.55;;;;;;;4.85;71.68;101132.41;4172491;28;20040;-69
2022/12/02 03:26:40;;;;;;;50.10;24.50;;;;;;;4.83;71.62;101136.63;4188847;28;20032;-69
2022/12/02 03:28:43;;;;;;;44.73;25.17;;;;;;;4.80;71.79;101131.28;4182620;28;20041;-69
2022/12/02 03:30:47;;;;;;;47.83;24.02;;;;;;;4.74;72.33;101132.69;4197899;28;20040;-70
2022/12/02 03:32:50;;;;;;;44.08;24.13;;;;;;;4.88;71.70;101127.41;4193098;28;20044;-69
2022/12/02 03:34:53;;;;;;;43.22;25.13;;;;;;;4.84;71.66;101129.75;4180903;28;20167;-69
2022/12/02 03:36:58;;;;;;;49.95;26.13;;;;;;;4.83;71.75;101128.88;4193367;28;20119;-70
2022/12/02 03:39:01;;;;;;;;;;;;;;;4.83;71.67;101127.97;4189577;28;20037;-70
2022/12/02 03:41:05;;;;;;;44.80;22.55;;;;;;;4.78;71.79;101124.31;4195061;28;19920;-70
2022/12/02 03:43:08;;;;;;;41.70;23.92;;;;;;;4.83;71.68;101121.16;4193316;28;20040;-70
2022/12/02 03:45:12;;;;;;;45.03;22.77;;;;;;;4.80;71.62;101128.72;4183299;28;20037;-70
2022/12/02 03:47:16;;;;;;;46.75;23.20;;;;;;;4.86;71.57;101118.72;4185537;28;20033;-69
2022/12/02 03:49:19;;;;;;;54.15;26.23;;;;;;;4.86;71.77;101110.09;4191537;28;20029;-69
2022/12/02 03:51:22;;;;;;;46.42;24.50;;;;;;;4.81;71.83;101114.16;4194490;28;20051;-69
2022/12/02 03:53:27;;;;;;;48.95;24.80;;;;;;;4.98;71.18;101109.78;4192407;28;20563;-70
2022/12/02 03:55:30;;;;;;;49.58;25.35;;;;;;;5.01;70.81;101115.13;4197397;28;20041;-70
2022/12/02 03:57:34;;;;;;;46.72;24.65;;;;;;;5.05;70.32;101115.31;4193336;28;20131;-70
2022/12/02 03:59:37;;;;;;;44.72;22.55;;;;;;;4.96;70.90;101116.56;4196474;28;20036;-70
2022/12/02 04:01:41;;;;;;;43.47;25.60;;;;;;;4.86;70.95;101103.28;4184104;28;20040;-70
2022/12/02 04:03:45;;;;;;;48.40;25.13;;;;;;;4.72;71.64;101107.75;4185101;28;20041;-70
2022/12/02 04:05:48;;;;;;;48.35;24.38;;;;;;;4.78;71.96;101103.72;4181057;28;20037;-70
2022/12/02 04:07:51;;;;;;;45.10;23.50;;;;;;;4.81;71.71;101104.72;4191711;28;20555;-69
2022/12/02 04:09:55;;;;;;;50.58;24.83;;;;;;;4.81;71.59;101104.72;4189637;28;20056;-70
2022/12/02 04:11:58;;;;;;;43.70;23.63;;;;;;;4.87;71.67;101106.72;4189917;28;20051;-70
2022/12/02 04:14:01;;;;;;;42.88;24.23;;;;;;;4.82;72.16;101100.44;4189343;28;20391;-70
2022/12/02 04:16:04;;;;;;;43.42;23.55;;;;;;;4.85;71.86;101100.63;4190341;28;20135;-70
2022/12/02 04:18:07;;;;;;;41.70;22.27;;;;;;;4.83;71.77;101100.53;4185545;28;20044;-70
2022/12/02 04:20:13;;;;;;;41.20;22.58;;;;;;;4.97;71.64;101098.59;4194176;28;20063;-70
2022/12/02 04:22:16;;;;;;;48.47;24.25;;;;;;;4.94;71.26;101101.03;4191723;28;20063;-70
2022/12/02 04:24:18;;;;;;;45.15;24.17;;;;;;;4.86;71.52;101087.81;4192678;28;20090;-70
2022/12/02 04:26:21;;;;;;;41.80;24.40;;;;;;;4.80;71.96;101084.91;4180787;28;20037;-70
2022/12/02 04:28:24;;;;;;;44.67;24.02;;;;;;;4.92;71.72;101087.22;4195890;28;20040;-70
2022/12/02 04:30:27;;;;;;;44.03;23.88;;;;;;;4.92;71.71;101089.81;4186798;28;20166;-70
2022/12/02 04:32:30;;;;;;;44.35;23.80;;;;;;;4.88;71.86;101086.19;4192372;28;20049;-70
2022/12/02 04:34:33;;;;;;;49.25;24.90;;;;;;;4.86;72.10;101084.31;4186923;28;20063;-70
2022/12/02 04:36:37;;;;;;;43.50;23.00;;;;;;;4.85;71.96;101088.59;4195812;28;20068;-70
2022/12/02 04:38:40;;;;;;;47.20;25.27;;;;;;;4.95;71.71;101089.03;4195286;28;20037;-69
2022/12/02 04:40:44;;;;;;;48.42;25.35;;;;;;;4.99;71.07;101084.09;4188296;28;20058;-70
2022/12/02 04:42:47;;;;;;;44.53;23.45;;;;;;;4.91;71.57;101080.28;4191856;28;20099;-71
2022/12/02 04:44:50;;;;;;;50.40;27.17;;;;;;;4.92;71.45;101086.31;4179528;28;20033;-71
2022/12/02 04:46:53;;;;;;;46.30;25.00;;;;;;;4.86;71.60;101080.09;4174728;28;20495;-71
2022/12/02 04:48:56;;;;;;;46.95;24.58;;;;;;;4.93;71.59;101083.81;4189650;28;20036;-71
2022/12/02 04:50:59;;;;;;;46.17;24.10;;;;;;;5.02;71.07;101086.84;4191544;28;20061;-71
2022/12/02 04:53:04;;;;;;;47.22;24.15;;;;;;;4.87;71.70;101080.94;4174027;28;20068;-72
2022/12/02 04:55:07;;;;;;;47.60;22.83;;;;;;;4.89;71.48;101081.91;4180048;28;20046;-72
2022/12/02 04:57:10;;;;;;;46.40;24.73;;;;;;;4.91;71.45;101085.44;4178496;28;20041;-71
2022/12/02 04:59:13;;;;;;;47.95;23.50;;;;;;;4.84;71.42;101073.97;4186286;28;20474;-71
2022/12/02 05:01:16;;;;;;;44.47;25.08;;;;;;;4.85;71.41;101070.56;4185121;28;20037;-71
2022/12/02 05:03:19;;;;;;;45.72;24.13;;;;;;;4.81;71.78;101084.13;4179300;28;20521;-71
2022/12/02 05:05:23;;;;;;;48.97;25.05;;;;;;;4.86;71.32;101080.09;4190976;28;20036;-72
2022/12/02 05:07:26;;;;;;;44.92;24.17;;;;;;;4.79;71.64;101079.69;4196269;28;20056;-72
2022/12/02 05:09:30;;;;;;;43.05;23.73;;;;;;;4.83;71.47;101076.47;4192892;28;20048;-71
2022/12/02 05:11:33;;;;;;;48.35;25.20;;;;;;;4.77;71.70;101074.47;4190799;28;20037;-71
2022/12/02 05:13:38;;;;;;;42.58;24.25;;;;;;;4.74;71.84;101074.34;4195486;28;20112;-72
2022/12/02 05:15:41;;;;;;;47.75;25.45;;;;;;;4.76;72.27;101079.56;4186078;28;20068;-71
2022/12/02 05:17:44;;;;;;;47.00;25.45;;;;;;;4.87;71.90;101073.22;4192133;28;20060;-72
2022/12/02 05:19:47;;;;;;;45.58;23.70;;;;;;;4.99;71.32;101068.63;4190818;28;20040;-72
2022/12/02 05:21:50;;;;;;;47.80;25.23;;;;;;;4.88;71.38;101060.41;4175028;28;20096;-72
2022/12/02 05:23:52;;;;;;;44.65;24.45;;;;;;;4.82;71.45;101065.28;4187084;28;20048;-73
2022/12/02 05:25:57;;;;;;;42.10;23.13;;;;;;;4.87;71.40;101063.78;4195688;28;20458;-72
2022/12/02 05:28:00;;;;;;;46.97;24.75;;;;;;;4.85;71.83;101059.41;4191334;28;20040;-72
2022/12/02 05:30:03;;;;;;;46.72;23.27;;;;;;;4.83;71.68;101061.00;4199515;28;20501;-72
2022/12/02 05:32:06;;;;;;;47.58;25.15;;;;;;;4.88;71.60;101065.56;4198837;28;20123;-73
2022/12/02 05:34:09;;;;;;;47.65;24.65;;;;;;;4.87;71.68;101071.53;4198081;28;20036;-72
2022/12/02 05:36:13;;;;;;;45.47;23.33;;;;;;;4.85;71.39;101060.28;4182207;28;20053;-72
2022/12/02 05:38:18;;;;;;;56.83;25.38;;;;;;;4.92;71.56;101061.47;4182309;28;20508;-72
2022/12/02 05:40:22;;;;;;;45.97;24.38;;;;;;;4.83;71.85;101056.75;4192980;28;20487;-72
2022/12/02 05:42:29;;;;;;;46.00;23.63;;;;;;;4.84;71.78;101058.50;4198358;28;20051;-72
2022/12/02 05:44:34;;;;;;;50.15;27.05;;;;;;;4.87;71.94;101063.78;4191108;28;20473;-72
2022/12/02 05:46:41;;;;;;;47.65;22.60;;;;;;;4.86;71.66;101056.91;4197533;28;20047;-73
2022/12/02 05:48:45;;;;;;;41.20;23.65;;;;;;;4.83;71.81;101054.19;4196848;28;20462;-73
2022/12/02 05:50:49;;;;;;;50.53;24.85;;;;;;;4.81;71.87;101058.34;4195644;28;20063;-73
2022/12/02 05:52:52;;;;;;;45.40;23.90;;;;;;;4.94;71.26;101058.94;4198375;28;20113;-73
2022/12/02 05:54:58;;;;;;;46.55;24.77;;;;;;;4.89;71.23;101053.56;4183973;28;20107;-74
2022/12/02 05:57:03;;;;;;;44.45;24.15;;;;;;;4.86;71.13;101056.00;4190685;28;20036;-73
2022/12/02 05:59:13;;;;;;;;;;;;;;;4.76;71.64;101054.69;4195206;28;20542;-73
2022/12/02 06:01:21;;;;;;;47.58;23.65;;;;;;;4.71;71.70;101056.16;4190467;28;19925;-74
2022/12/02 06:03:25;;;;;;;44.75;23.60;;;;;;;4.70;71.82;101060.44;4186728;28;20134;-75
2022/12/02 06:05:31;;;;;;;43.47;22.55;;;;;;;4.83;71.29;101064.47;4187468;28;20345;-75
2022/12/02 06:07:34;;;;;;;48.17;22.83;;;;;;;4.76;71.43;101067.56;4192700;28;20479;-74
2022/12/02 06:09:38;;;;;;;47.35;23.73;;;;;;;4.78;71.05;101060.78;4188849;28;20049;-72
2022/12/02 06:11:41;;;;;;;43.58;23.63;;;;;;;4.69;71.31;101062.94;4190301;28;20083;-72
2022/12/02 06:13:43;;;;;;;41.85;22.08;;;;;;;4.72;71.38;101063.09;4185078;28;20091;-72
2022/12/02 06:15:49;;;;;;;42.38;24.08;;;;;;;4.74;71.12;101061.44;4196246;28;20281;-72
2022/12/02 06:17:53;;;;;;;41.78;23.23;;;;;;;4.71;71.47;101057.03;4165172;28;20052;-73
2022/12/02 06:19:57;;;;;;;38.20;22.05;;;;;;;4.82;70.97;101056.66;4183792;28;20509;-72
2022/12/02 06:22:02;;;;;;;45.20;24.67;;;;;;;4.76;71.33;101059.84;4194120;28;20115;-73
2022/12/02 06:24:09;;;;;;;44.08;22.40;;;;;;;4.94;70.62;101056.38;4197439;28;20040;-72
2022/12/02 06:26:13;;;;;;;43.03;23.50;;;;;;;4.90;70.58;101057.91;4181377;28;20506;-71
2022/12/02 06:28:25;;;;;;;44.47;25.27;;;;;;;4.78;70.92;101050.50;4185739;28;20478;-72
2022/12/02 06:30:28;;;;;;;45.78;24.52;;;;;;;4.77;70.99;101046.13;4188792;28;20095;-71
2022/12/02 06:32:36;;;;;;;45.92;23.80;;;;;;;4.83;70.88;101046.44;4190886;28;20544;-71
2022/12/02 06:34:42;;;;;;;39.83;24.30;;;;;;;4.75;71.19;101047.78;4192541;28;20036;-72
2022/12/02 06:36:46;;;;;;;44.88;23.98;;;;;;;4.80;70.94;101051.44;4197474;28;20398;-72
2022/12/02 06:38:51;;;;;;;38.60;21.48;;;;;;;4.78;70.98;101047.03;4199011;28;20040;-72
2022/12/02 06:40:54;;;;;;;43.95;22.70;;;;;;;4.79;71.22;101052.25;4194836;28;20037;-72
2022/12/02 06:42:58;;;;;;;45.88;23.63;;;;;;;4.84;70.88;101053.34;4192059;28;20037;-71
2022/12/02 06:45:05;;;;;;;48.33;24.60;;;;;;;4.80;70.97;101056.59;4179714;28;20053;-71
2022/12/02 06:47:49;;;;;;;45.97;23.55;;;;;;;4.78;70.89;101050.50;4196252;28;20391;-71
2022/12/02 06:49:51;;;;;;;45.83;21.85;;;;;;;4.76;70.94;101048.63;4174213;28;20483;-72
2022/12/02 06:51:57;;;;;;;45.08;23.63;;;;;;;4.81;70.66;101055.78;4197452;28;20578;-71
2022/12/02 06:54:05;;;;;;;41.75;21.55;;;;;;;4.77;71.01;101059.00;4198104;28;20044;-71
2022/12/02 06:56:20;;;;;;;42.47;22.35;;;;;;;4.69;70.99;101058.66;4197612;28;20086;-71
2022/12/02 06:58:28;;;;;;;45.88;23.77;;;;;;;4.69;71.19;101056.09;4196570;28;20127;-71
2022/12/02 07:00:32;;;;;;;46.28;23.63;;;;;;;4.77;70.62;101055.56;4200481;28;20800;-72
2022/12/02 07:02:35;;;;;;;40.88;22.17;;;;;;;4.74;71.06;101058.00;4196299;28;20032;-71
2022/12/02 07:04:44;;;;;;;45.45;25.15;;;;;;;4.75;70.76;101060.66;4189109;28;20044;-71
2022/12/02 07:06:52;;;;;;;46.88;22.58;;;;;;;4.75;70.60;101060.66;4194764;28;20416;-72
2022/12/02 07:08:56;;;;;;;48.58;24.92;;;;;;;4.71;71.01;101062.19;4205239;28;20043;-71
2022/12/02 07:10:59;;;;;;;45.20;23.52;;;;;;;4.78;70.79;101068.53;4196611;28;20135;-71
2022/12/02 07:13:05;;;;;;;46.88;23.63;;;;;;;4.77;71.04;101061.59;4196463;28;20412;-72
2022/12/02 07:15:22;;;;;;;45.65;22.92;;;;;;;4.81;71.12;101060.06;4196106;28;20040;-71
2022/12/02 07:17:27;;;;;;;44.42;23.33;;;;;;;4.74;71.37;101055.44;4197085;28;20044;-71
2022/12/02 07:19:37;;;;;;;46.83;24.52;;;;;;;4.67;71.44;101059.38;4196804;28;20402;-71
2022/12/02 07:21:42;;;;;;;40.72;22.08;;;;;;;4.76;71.32;101059.84;4185596;28;20033;-71
2022/12/02 07:23:44;;;;;;;40.83;22.35;;;;;;;4.75;71.34;101058.06;4183259;28;20036;-71
2022/12/02 07:25:50;;;;;;;47.53;24.20;;;;;;;4.78;71.45;101062.50;4182612;28;20045;-71
2022/12/02 07:27:53;;;;;;;47.70;25.77;;;;;;;4.75;71.22;101058.06;4188603;28;20059;-71
2022/12/02 07:29:57;;;;;;;48.42;26.02;;;;;;;4.78;70.92;101058.22;4195586;28;20053;-71
2022/12/02 07:32:00;;;;;;;48.97;25.52;;;;;;;4.69;71.21;101058.66;4194789;28;20045;-71
2022/12/02 07:34:02;;;;;;;54.67;25.40;;;;;;;4.69;71.13;101058.66;4194273;28;20040;-71
2022/12/02 07:36:06;;;;;;;46.40;25.27;;;;;;;4.68;71.15;101059.47;4197545;28;20071;-72
2022/12/02 07:38:10;;;;;;;44.97;24.00;;;;;;;4.70;71.11;101054.38;4187138;28;20051;-72
2022/12/02 07:40:15;;;;;;;47.42;23.52;;;;;;;4.72;71.20;101055.34;4194462;28;20098;-71
2022/12/02 07:42:17;;;;;;;42.95;22.25;;;;;;;4.68;71.31;101056.88;4193445;28;20444;-71
2022/12/02 07:44:20;;;;;;;44.35;24.58;;;;;;;4.72;71.24;101055.34;4193978;28;20452;-71
2022/12/02 07:46:23;;;;;;;56.53;25.50;;;;;;;4.71;71.65;101058.72;4193709;28;20044;-72
2022/12/02 07:48:26;;;;;;;63.08;26.17;;;;;;;4.69;71.82;101055.22;4194322;28;20642;-71
2022/12/02 07:50:30;;;;;;;49.08;24.40;;;;;;;4.69;71.68;101050.94;4194289;28;20037;-71
2022/12/02 07:52:34;;;;;;;52.70;23.58;;;;;;;4.72;71.77;101052.78;4192715;28;20486;-71
2022/12/02 07:54:38;;;;;;;44.97;23.55;;;;;;;4.81;71.44;101049.75;4194126;28;20522;-71
2022/12/02 07:56:41;;;;;;;48.95;24.25;;;;;;;4.88;70.71;101051.81;4193761;28;20039;-71
2022/12/02 07:58:44;;;;;;;47.53;25.30;;;;;;;4.85;70.87;101046.53;4192000;28;20510;-71
2022/12/02 08:01:07;;;;;;;52.22;25.23;;;;;;;4.76;71.37;101044.41;4185567;28;20520;-72
2022/12/02 08:03:10;;;;;;;50.55;23.80;;;;;;;4.82;70.99;101042.09;4188834;28;20048;-72
2022/12/02 08:05:13;;;;;;;43.80;23.55;;;;;;;4.80;70.97;101041.13;4189510;28;20044;-71
2022/12/02 08:07:16;;;;;;;51.90;26.35;;;;;;;4.77;70.93;101046.13;4191603;28;20040;-72
2022/12/02 08:09:18;;;;;;;40.22;21.15;;;;;;;4.66;71.48;101043.06;4195403;28;20044;-72
2022/12/02 08:11:23;;;;;;;47.25;25.25;;;;;;;4.74;71.35;101045.13;4194190;28;20127;-72
2022/12/02 08:13:25;;;;;;;48.85;24.08;;;;;;;4.82;71.13;101046.34;4189582;28;20045;-71
2022/12/02 08:15:28;;;;;;;52.17;26.05;;;;;;;4.83;70.93;101043.88;4196357;28;20041;-72
2022/12/02 08:17:31;;;;;;;50.65;26.02;;;;;;;4.83;71.10;101045.53;4195195;28;20123;-71
2022/12/02 08:19:34;;;;;;;46.47;24.27;;;;;;;4.73;71.14;101039.06;4194743;28;20129;-71
2022/12/02 08:21:39;;;;;;;51.90;24.50;;;;;;;4.79;71.18;101034.22;4179424;28;20045;-71
2022/12/02 08:23:41;;;;;;;;;;;;;;;4.66;71.77;101039.63;4189955;28;20039;-71
2022/12/02 08:25:44;;;;;;;48.53;23.08;;;;;;;4.68;71.84;101043.13;4192861;28;19921;-72
2022/12/02 08:27:49;;;;;;;49.38;24.08;;;;;;;4.78;71.61;101037.59;4195244;28;20406;-71
2022/12/02 08:29:52;;;;;;;43.42;24.98;;;;;;;4.79;71.51;101039.38;4185592;28;20447;-74
2022/12/02 08:31:55;;;;;;;49.50;25.83;;;;;;;4.72;71.95;101040.78;4183997;28;20044;-72
2022/12/02 08:33:58;;;;;;;48.05;24.85;;;;;;;4.75;72.23;101042.63;4187327;28;20036;-72
2022/12/02 08:36:08;;;;;;;53.17;26.35;;;;;;;4.92;71.29;101039.94;4192876;28;20060;-73
2022/12/02 08:38:11;;;;;;;48.67;24.47;;;;;;;4.97;71.13;101043.63;4197192;28;20049;-72
2022/12/02 08:40:14;;;;;;;55.17;25.65;;;;;;;4.89;71.16;101031.28;4195681;28;20536;-72
2022/12/02 08:42:17;;;;;;;46.20;26.33;;;;;;;4.83;71.31;101038.72;4197272;28;20040;-73
2022/12/02 08:44:21;;;;;;;45.15;24.90;;;;;;;4.83;71.17;101036.16;4196213;28;20049;-73
2022/12/02 08:46:24;;;;;;;50.90;25.33;;;;;;;4.93;71.43;101031.41;4196255;28;20033;-73
2022/12/02 08:48:27;;;;;;;49.35;26.88;;;;;;;4.85;71.38;101033.63;4192734;28;20045;-73
2022/12/02 08:50:33;;;;;;;55.60;27.58;;;;;;;4.85;71.70;101033.63;4193687;28;20044;-72
2022/12/02 08:52:38;;;;;;;45.83;23.40;;;;;;;4.88;71.52;101036.34;4189795;28;20039;-72
2022/12/02 08:54:44;;;;;;;43.92;22.77;;;;;;;4.94;71.26;101033.19;4195889;28;20517;-73
2022/12/02 08:56:50;;;;;;;47.55;24.48;;;;;;;4.99;71.17;101026.53;4192061;28;20150;-72
2022/12/02 08:58:53;;;;;;;46.38;24.90;;;;;;;4.99;70.89;101031.69;4188875;28;20041;-72
2022/12/02 09:00:57;;;;;;;42.55;24.23;;;;;;;4.83;71.34;101031.00;4196911;28;20042;-73
2022/12/02 09:03:00;;;;;;;52.63;26.52;;;;;;;4.87;71.41;101034.59;4189351;28;20103;-73
2022/12/02 09:05:05;;;;;;;51.92;27.35;;;;;;;4.84;71.60;101037.88;4177995;28;20487;-73
2022/12/02 09:07:08;;;;;;;47.35;24.63;;;;;;;4.79;72.28;101029.09;4180373;28;20498;-73
2022/12/02 09:09:11;;;;;;;43.40;23.95;;;;;;;4.93;71.37;101034.00;4184931;28;20044;-72
2022/12/02 09:11:14;;;;;;;48.17;25.42;;;;;;;4.87;71.59;101030.31;4187667;28;20060;-73
2022/12/02 09:13:21;;;;;;;44.38;23.90;;;;;;;4.94;71.32;101020.31;4195347;28;20040;-72
2022/12/02 09:15:24;;;;;;;;;;;;;;;4.87;71.68;101026.84;4195690;28;20405;-73
2022/12/02 09:17:28;;;;;;;44.90;22.17;;;;;;;4.71;72.38;101033.84;4196198;28;19920;-73
2022/12/02 09:19:31;;;;;;;47.88;22.88;;;;;;;4.83;72.38;101025.84;4194106;28;20127;-72
2022/12/02 09:21:34;;;;;;;40.50;23.83;;;;;;;4.93;72.03;101039.13;4194431;28;20431;-73
2022/12/02 09:23:37;;;;;;;43.05;23.67;;;;;;;4.83;72.54;101035.25;4192892;28;20044;-73
2022/12/02 09:25:40;;;;;;;50.08;22.40;;;;;;;4.94;72.89;101033.19;4190473;28;20482;-72
2022/12/02 09:27:43;;;;;;;40.53;21.08;;;;;;;4.88;72.75;101036.34;4196266;28;20032;-73
2022/12/02 09:29:46;;;;;;;41.78;22.17;;;;;;;4.85;72.88;101034.50;4193707;28;20119;-73
2022/12/02 09:31:49;;;;;;;41.53;20.85;;;;;;;4.98;72.61;101035.97;4191758;28;20045;-73
2022/12/02 09:33:53;;;;;;;42.20;22.17;;;;;;;4.90;72.61;101040.75;4195723;28;20032;-73
2022/12/02 09:35:56;;;;;;;45.55;23.13;;;;;;;4.90;73.01;101035.59;4193588;28;20040;-72